sensor_id;sensor_type;location;lat;lon;timestamp;temperature;humidity
15947;DHT22;8072;52.554;7.966;2022-10-18T00:01:05;15.20;99.90
15947;DHT22;8072;52.554;7.966;2022-10-18T00:03:32;15.20;99.90
15947;DHT22;8072;52.554;7.966;2022-10-18T00:05:58;15.10;99.90
15947;DHT22;8072;52.554;7.966;2022-10-18T00:08:25;15.10;99.90
15947;DHT22;8072;52.554;7.966;2022-10-18T00:10:51;15.10;99.90
15947;DHT22;8072;52.554;7.966;2022-10-18T00:13:16;15.10;99.90
15947;DHT22;8072;52.554;7.966;2022-10-18T00:15:54;15.10;99.90
15947;DHT22;8072;52.554;7.966;2022-10-18T00:18:20;15.00;99.90
15947;DHT22;8072;52.554;7.966;2022-10-18T00:20:56;15.00;99.90
15947;DHT22;8072;52.554;7.966;2022-10-18T00:23:21;15.00;99.90
15947;DHT22;8072;52.554;7.966;2022-10-18T00:25:47;15.00;99.90
15947;DHT22;8072;52.554;7.966;2022-10-18T00:28:13;15.00;99.90
15947;DHT22;8072;52.554;7.966;2022-10-18T00:30:38;15.10;99.90
15947;DHT22;8072;52.554;7.966;2022-10-18T00:33:04;15.00;99.90
15947;DHT22;8072;52.554;7.966;2022-10-18T00:35:30;15.00;99.90
15947;DHT22;8072;52.554;7.966;2022-10-18T00:37:58;15.00;99.90
15947;DHT22;8072;52.554;7.966;2022-10-18T00:40:24;15.00;99.90
15947;DHT22;8072;52.554;7.966;2022-10-18T00:42:49;15.00;99.90
15947;DHT22;8072;52.554;7.966;2022-10-18T00:45:19;15.00;99.90
15947;DHT22;8072;52.554;7.966;2022-10-18T00:47:48;15.00;99.90
15947;DHT22;8072;52.554;7.966;2022-10-18T00:50:14;15.00;99.90
15947;DHT22;8072;52.554;7.966;2022-10-18T00:52:47;14.90;99.90
15947;DHT22;8072;52.554;7.966;2022-10-18T00:55:15;14.90;99.90
15947;DHT22;8072;52.554;7.966;2022-10-18T00:57:41;14.90;99.90
15947;DHT22;8072;52.554;7.966;2022-10-18T01:00:09;14.90;99.90
15947;DHT22;8072;52.554;7.966;2022-10-18T01:02:36;14.90;99.90
15947;DHT22;8072;52.554;7.966;2022-10-18T01:05:02;14.90;99.90
15947;DHT22;8072;52.554;7.966;2022-10-18T01:15:41;14.80;99.90
15947;DHT22;8072;52.554;7.966;2022-10-18T01:21:09;14.80;99.90
15947;DHT22;8072;52.554;7.966;2022-10-18T01:24:00;14.80;99.90
15947;DHT22;8072;52.554;7.966;2022-10-18T01:32:06;14.80;99.90
15947;DHT22;8072;52.554;7.966;2022-10-18T01:34:35;14.80;99.90
15947;DHT22;8072;52.554;7.966;2022-10-18T01:37:07;14.80;99.90
15947;DHT22;8072;52.554;7.966;2022-10-18T01:39:37;14.80;99.90
15947;DHT22;8072;52.554;7.966;2022-10-18T01:42:09;14.80;99.90
15947;DHT22;8072;52.554;7.966;2022-10-18T01:44:37;14.70;99.90
15947;DHT22;8072;52.554;7.966;2022-10-18T01:47:04;14.70;99.90
15947;DHT22;8072;52.554;7.966;2022-10-18T01:49:31;14.70;99.90
15947;DHT22;8072;52.554;7.966;2022-10-18T01:51:58;14.70;99.90
15947;DHT22;8072;52.554;7.966;2022-10-18T01:54:32;14.70;99.90
15947;DHT22;8072;52.554;7.966;2022-10-18T02:10:39;14.50;99.90
15947;DHT22;8072;52.554;7.966;2022-10-18T02:13:06;14.50;99.90
15947;DHT22;8072;52.554;7.966;2022-10-18T02:15:36;14.40;99.90
15947;DHT22;8072;52.554;7.966;2022-10-18T02:18:07;14.40;99.90
15947;DHT22;8072;52.554;7.966;2022-10-18T02:20:35;14.40;99.90
15947;DHT22;8072;52.554;7.966;2022-10-18T02:23:06;14.40;99.90
15947;DHT22;8072;52.554;7.966;2022-10-18T02:25:33;14.40;99.90
15947;DHT22;8072;52.554;7.966;2022-10-18T02:28:01;14.40;99.90
15947;DHT22;8072;52.554;7.966;2022-10-18T02:30:39;14.30;99.90
15947;DHT22;8072;52.554;7.966;2022-10-18T02:33:24;14.30;99.90
15947;DHT22;8072;52.554;7.966;2022-10-18T02:35:58;14.30;99.90
15947;DHT22;8072;52.554;7.966;2022-10-18T02:38:27;14.20;99.90
15947;DHT22;8072;52.554;7.966;2022-10-18T02:40:54;14.10;99.90
15947;DHT22;8072;52.554;7.966;2022-10-18T02:43:23;14.10;99.90
15947;DHT22;8072;52.554;7.966;2022-10-18T02:45:49;14.10;99.90
15947;DHT22;8072;52.554;7.966;2022-10-18T02:48:14;14.10;99.90
15947;DHT22;8072;52.554;7.966;2022-10-18T02:50:40;14.10;99.90
15947;DHT22;8072;52.554;7.966;2022-10-18T02:53:06;14.10;99.90
15947;DHT22;8072;52.554;7.966;2022-10-18T02:55:31;14.10;99.90
15947;DHT22;8072;52.554;7.966;2022-10-18T02:57:57;14.00;99.90
15947;DHT22;8072;52.554;7.966;2022-10-18T03:00:23;14.10;99.90
15947;DHT22;8072;52.554;7.966;2022-10-18T03:02:49;14.00;99.90
15947;DHT22;8072;52.554;7.966;2022-10-18T03:05:14;14.00;99.90
15947;DHT22;8072;52.554;7.966;2022-10-18T03:07:40;14.00;99.90
15947;DHT22;8072;52.554;7.966;2022-10-18T03:10:06;14.00;99.90
15947;DHT22;8072;52.554;7.966;2022-10-18T03:12:32;14.00;99.90
15947;DHT22;8072;52.554;7.966;2022-10-18T03:14:58;13.90;99.90
15947;DHT22;8072;52.554;7.966;2022-10-18T03:17:24;13.90;99.90
15947;DHT22;8072;52.554;7.966;2022-10-18T03:19:49;13.90;99.90
15947;DHT22;8072;52.554;7.966;2022-10-18T03:22:15;13.90;99.90
15947;DHT22;8072;52.554;7.966;2022-10-18T03:24:41;13.90;99.90
15947;DHT22;8072;52.554;7.966;2022-10-18T03:27:07;13.90;99.90
15947;DHT22;8072;52.554;7.966;2022-10-18T03:29:33;13.90;99.90
15947;DHT22;8072;52.554;7.966;2022-10-18T03:31:58;13.90;99.90
15947;DHT22;8072;52.554;7.966;2022-10-18T03:34:24;13.80;99.90
15947;DHT22;8072;52.554;7.966;2022-10-18T03:36:50;13.80;99.90
15947;DHT22;8072;52.554;7.966;2022-10-18T03:39:16;13.80;99.90
15947;DHT22;8072;52.554;7.966;2022-10-18T03:41:41;13.80;99.90
15947;DHT22;8072;52.554;7.966;2022-10-18T03:44:07;13.80;99.90
15947;DHT22;8072;52.554;7.966;2022-10-18T03:46:33;13.80;99.90
15947;DHT22;8072;52.554;7.966;2022-10-18T03:48:58;13.80;99.90
15947;DHT22;8072;52.554;7.966;2022-10-18T03:51:24;13.80;99.90
15947;DHT22;8072;52.554;7.966;2022-10-18T03:53:50;13.80;99.90
15947;DHT22;8072;52.554;7.966;2022-10-18T03:56:15;13.70;99.90
15947;DHT22;8072;52.554;7.966;2022-10-18T03:58:41;13.70;99.90
15947;DHT22;8072;52.554;7.966;2022-10-18T04:01:07;13.70;99.90
15947;DHT22;8072;52.554;7.966;2022-10-18T04:03:33;13.70;99.90
15947;DHT22;8072;52.554;7.966;2022-10-18T04:05:58;13.60;99.90
15947;DHT22;8072;52.554;7.966;2022-10-18T04:08:25;13.60;99.90
15947;DHT22;8072;52.554;7.966;2022-10-18T04:10:51;13.60;99.90
15947;DHT22;8072;52.554;7.966;2022-10-18T04:13:17;13.60;99.90
15947;DHT22;8072;52.554;7.966;2022-10-18T04:15:42;13.60;99.90
15947;DHT22;8072;52.554;7.966;2022-10-18T04:18:08;13.60;99.90
15947;DHT22;8072;52.554;7.966;2022-10-18T04:20:34;13.60;99.90
15947;DHT22;8072;52.554;7.966;2022-10-18T04:23:00;13.60;99.90
15947;DHT22;8072;52.554;7.966;2022-10-18T04:25:25;13.60;99.90
15947;DHT22;8072;52.554;7.966;2022-10-18T04:27:53;13.50;99.90
15947;DHT22;8072;52.554;7.966;2022-10-18T04:30:19;13.50;99.90
15947;DHT22;8072;52.554;7.966;2022-10-18T04:32:44;13.50;99.90
15947;DHT22;8072;52.554;7.966;2022-10-18T04:35:10;13.50;99.90
15947;DHT22;8072;52.554;7.966;2022-10-18T04:37:36;13.50;99.90
15947;DHT22;8072;52.554;7.966;2022-10-18T04:40:02;13.50;99.90
15947;DHT22;8072;52.554;7.966;2022-10-18T04:42:28;13.40;99.90
15947;DHT22;8072;52.554;7.966;2022-10-18T04:44:54;13.40;99.90
15947;DHT22;8072;52.554;7.966;2022-10-18T04:47:19;13.40;99.90
15947;DHT22;8072;52.554;7.966;2022-10-18T04:49:45;13.40;99.90
15947;DHT22;8072;52.554;7.966;2022-10-18T04:52:11;13.40;99.90
15947;DHT22;8072;52.554;7.966;2022-10-18T04:54:37;13.40;99.90
15947;DHT22;8072;52.554;7.966;2022-10-18T04:57:03;13.40;99.90
15947;DHT22;8072;52.554;7.966;2022-10-18T04:59:28;13.40;99.90
15947;DHT22;8072;52.554;7.966;2022-10-18T05:01:54;13.40;99.90
15947;DHT22;8072;52.554;7.966;2022-10-18T05:04:20;13.40;99.90
15947;DHT22;8072;52.554;7.966;2022-10-18T05:06:45;13.40;99.90
15947;DHT22;8072;52.554;7.966;2022-10-18T05:09:11;13.40;99.90
15947;DHT22;8072;52.554;7.966;2022-10-18T05:11:37;13.40;99.90
15947;DHT22;8072;52.554;7.966;2022-10-18T05:14:03;13.40;99.90
15947;DHT22;8072;52.554;7.966;2022-10-18T05:16:29;13.40;99.90
15947;DHT22;8072;52.554;7.966;2022-10-18T05:18:56;13.40;99.90
15947;DHT22;8072;52.554;7.966;2022-10-18T05:21:22;13.30;99.90
15947;DHT22;8072;52.554;7.966;2022-10-18T05:23:47;13.30;99.90
15947;DHT22;8072;52.554;7.966;2022-10-18T05:26:13;13.30;99.90
15947;DHT22;8072;52.554;7.966;2022-10-18T05:28:39;13.30;99.90
15947;DHT22;8072;52.554;7.966;2022-10-18T05:31:06;13.30;99.90
15947;DHT22;8072;52.554;7.966;2022-10-18T05:33:32;13.30;99.90
15947;DHT22;8072;52.554;7.966;2022-10-18T05:35:58;13.40;99.90
15947;DHT22;8072;52.554;7.966;2022-10-18T05:38:24;13.40;99.90
15947;DHT22;8072;52.554;7.966;2022-10-18T05:40:50;13.30;99.90
15947;DHT22;8072;52.554;7.966;2022-10-18T05:43:16;13.30;99.90
15947;DHT22;8072;52.554;7.966;2022-10-18T05:45:49;13.30;99.90
15947;DHT22;8072;52.554;7.966;2022-10-18T05:48:15;13.30;99.90
15947;DHT22;8072;52.554;7.966;2022-10-18T05:50:41;13.30;99.90
15947;DHT22;8072;52.554;7.966;2022-10-18T05:53:07;13.30;99.90
15947;DHT22;8072;52.554;7.966;2022-10-18T05:55:33;13.20;99.90
15947;DHT22;8072;52.554;7.966;2022-10-18T05:57:58;13.20;99.90
15947;DHT22;8072;52.554;7.966;2022-10-18T06:00:24;13.20;99.90
15947;DHT22;8072;52.554;7.966;2022-10-18T06:02:50;13.20;99.90
15947;DHT22;8072;52.554;7.966;2022-10-18T06:05:15;13.20;99.90
15947;DHT22;8072;52.554;7.966;2022-10-18T06:07:41;13.20;99.90
15947;DHT22;8072;52.554;7.966;2022-10-18T06:10:07;13.20;99.90
15947;DHT22;8072;52.554;7.966;2022-10-18T06:12:33;13.20;99.90
15947;DHT22;8072;52.554;7.966;2022-10-18T06:14:59;13.20;99.90
15947;DHT22;8072;52.554;7.966;2022-10-18T06:17:24;13.20;99.90
15947;DHT22;8072;52.554;7.966;2022-10-18T06:19:50;13.20;99.90
15947;DHT22;8072;52.554;7.966;2022-10-18T06:22:16;13.20;99.90
15947;DHT22;8072;52.554;7.966;2022-10-18T06:24:42;13.20;99.90
15947;DHT22;8072;52.554;7.966;2022-10-18T06:27:07;13.20;99.90
15947;DHT22;8072;52.554;7.966;2022-10-18T06:29:37;13.20;99.90
15947;DHT22;8072;52.554;7.966;2022-10-18T06:32:05;13.20;99.90
15947;DHT22;8072;52.554;7.966;2022-10-18T06:34:31;13.20;99.90
15947;DHT22;8072;52.554;7.966;2022-10-18T06:36:57;13.20;99.90
15947;DHT22;8072;52.554;7.966;2022-10-18T06:39:23;13.20;99.90
15947;DHT22;8072;52.554;7.966;2022-10-18T06:41:49;13.30;99.90
15947;DHT22;8072;52.554;7.966;2022-10-18T06:44:14;13.30;99.90
15947;DHT22;8072;52.554;7.966;2022-10-18T06:46:42;13.30;99.90
15947;DHT22;8072;52.554;7.966;2022-10-18T06:49:08;13.30;99.90
15947;DHT22;8072;52.554;7.966;2022-10-18T06:51:34;13.30;99.90
15947;DHT22;8072;52.554;7.966;2022-10-18T06:53:59;13.30;99.90
15947;DHT22;8072;52.554;7.966;2022-10-18T06:56:25;13.30;99.90
15947;DHT22;8072;52.554;7.966;2022-10-18T06:58:51;13.40;99.90
15947;DHT22;8072;52.554;7.966;2022-10-18T07:01:17;13.30;99.90
15947;DHT22;8072;52.554;7.966;2022-10-18T07:03:44;13.40;99.90
15947;DHT22;8072;52.554;7.966;2022-10-18T07:06:12;13.40;99.90
15947;DHT22;8072;52.554;7.966;2022-10-18T07:08:38;13.40;99.90
15947;DHT22;8072;52.554;7.966;2022-10-18T07:11:05;13.40;99.90
15947;DHT22;8072;52.554;7.966;2022-10-18T07:13:31;13.40;99.90
15947;DHT22;8072;52.554;7.966;2022-10-18T07:16:05;13.40;99.90
15947;DHT22;8072;52.554;7.966;2022-10-18T07:18:36;13.50;99.90
15947;DHT22;8072;52.554;7.966;2022-10-18T07:21:04;13.60;99.90
15947;DHT22;8072;52.554;7.966;2022-10-18T07:23:35;13.70;99.90
15947;DHT22;8072;52.554;7.966;2022-10-18T07:26:02;13.80;99.90
15947;DHT22;8072;52.554;7.966;2022-10-18T07:28:28;13.90;99.90
15947;DHT22;8072;52.554;7.966;2022-10-18T07:30:54;14.00;99.90
15947;DHT22;8072;52.554;7.966;2022-10-18T07:33:20;14.00;99.90
15947;DHT22;8072;52.554;7.966;2022-10-18T07:35:46;14.00;99.90
15947;DHT22;8072;52.554;7.966;2022-10-18T07:38:15;14.00;99.90
15947;DHT22;8072;52.554;7.966;2022-10-18T07:40:41;14.10;99.90
15947;DHT22;8072;52.554;7.966;2022-10-18T07:43:07;14.20;99.90
15947;DHT22;8072;52.554;7.966;2022-10-18T07:45:32;14.10;99.90
15947;DHT22;8072;52.554;7.966;2022-10-18T07:47:58;14.10;99.90
15947;DHT22;8072;52.554;7.966;2022-10-18T07:50:24;14.10;99.90
15947;DHT22;8072;52.554;7.966;2022-10-18T07:52:49;14.10;99.90
15947;DHT22;8072;52.554;7.966;2022-10-18T07:55:15;14.10;99.90
15947;DHT22;8072;52.554;7.966;2022-10-18T07:57:41;14.10;99.90
15947;DHT22;8072;52.554;7.966;2022-10-18T08:00:07;14.10;99.90
15947;DHT22;8072;52.554;7.966;2022-10-18T08:02:33;14.10;99.90
15947;DHT22;8072;52.554;7.966;2022-10-18T08:04:59;14.10;99.90
15947;DHT22;8072;52.554;7.966;2022-10-18T08:07:25;14.20;99.90
15947;DHT22;8072;52.554;7.966;2022-10-18T08:09:51;14.20;99.90
15947;DHT22;8072;52.554;7.966;2022-10-18T08:12:17;14.10;99.90
15947;DHT22;8072;52.554;7.966;2022-10-18T08:14:43;14.20;99.90
15947;DHT22;8072;52.554;7.966;2022-10-18T08:17:09;14.30;99.90
15947;DHT22;8072;52.554;7.966;2022-10-18T08:19:34;14.30;99.90
15947;DHT22;8072;52.554;7.966;2022-10-18T08:22:00;14.30;99.90
15947;DHT22;8072;52.554;7.966;2022-10-18T08:24:26;14.30;99.90
15947;DHT22;8072;52.554;7.966;2022-10-18T08:26:51;14.40;99.90
15947;DHT22;8072;52.554;7.966;2022-10-18T08:29:17;14.40;99.90
15947;DHT22;8072;52.554;7.966;2022-10-18T08:31:43;14.40;99.90
15947;DHT22;8072;52.554;7.966;2022-10-18T08:34:09;14.50;99.90
15947;DHT22;8072;52.554;7.966;2022-10-18T08:36:36;14.50;99.90
15947;DHT22;8072;52.554;7.966;2022-10-18T08:39:02;14.50;99.90
15947;DHT22;8072;52.554;7.966;2022-10-18T08:46:49;14.60;99.90
15947;DHT22;8072;52.554;7.966;2022-10-18T08:49:41;14.60;99.90
15947;DHT22;8072;52.554;7.966;2022-10-18T08:55:14;14.60;99.90
15947;DHT22;8072;52.554;7.966;2022-10-18T08:57:45;14.70;99.90
15947;DHT22;8072;52.554;7.966;2022-10-18T09:00:15;14.70;99.90
15947;DHT22;8072;52.554;7.966;2022-10-18T09:03:06;14.70;99.90
15947;DHT22;8072;52.554;7.966;2022-10-18T09:06:15;14.60;99.90
15947;DHT22;8072;52.554;7.966;2022-10-18T09:11:46;14.60;99.90
15947;DHT22;8072;52.554;7.966;2022-10-18T09:22:38;14.80;99.90
15947;DHT22;8072;52.554;7.966;2022-10-18T09:28:00;15.00;99.90
15947;DHT22;8072;52.554;7.966;2022-10-18T09:30:48;15.10;99.90
15947;DHT22;8072;52.554;7.966;2022-10-18T09:34:00;15.10;99.90
15947;DHT22;8072;52.554;7.966;2022-10-18T09:36:34;15.10;99.90
15947;DHT22;8072;52.554;7.966;2022-10-18T09:39:14;15.20;99.90
15947;DHT22;8072;52.554;7.966;2022-10-18T09:44:57;15.20;99.90
15947;DHT22;8072;52.554;7.966;2022-10-18T09:47:47;15.20;99.90
15947;DHT22;8072;52.554;7.966;2022-10-18T09:50:35;15.30;99.90
15947;DHT22;8072;52.554;7.966;2022-10-18T09:58:43;15.60;99.90
15947;DHT22;8072;52.554;7.966;2022-10-18T10:01:13;15.80;99.90
15947;DHT22;8072;52.554;7.966;2022-10-18T10:03:40;15.90;99.90
15947;DHT22;8072;52.554;7.966;2022-10-18T10:08:43;16.00;99.90
15947;DHT22;8072;52.554;7.966;2022-10-18T10:14:07;16.20;99.90
15947;DHT22;8072;52.554;7.966;2022-10-18T10:16:33;16.30;99.90
15947;DHT22;8072;52.554;7.966;2022-10-18T10:21:52;16.50;99.90
15947;DHT22;8072;52.554;7.966;2022-10-18T10:24:32;16.60;99.90
15947;DHT22;8072;52.554;7.966;2022-10-18T10:27:05;16.70;99.90
15947;DHT22;8072;52.554;7.966;2022-10-18T10:32:13;16.90;99.90
15947;DHT22;8072;52.554;7.966;2022-10-18T10:34:40;17.10;99.90
15947;DHT22;8072;52.554;7.966;2022-10-18T10:37:25;17.20;99.90
15947;DHT22;8072;52.554;7.966;2022-10-18T10:40:16;17.30;99.90
15947;DHT22;8072;52.554;7.966;2022-10-18T10:45:41;17.50;99.90
15947;DHT22;8072;52.554;7.966;2022-10-18T10:48:15;17.70;99.90
15947;DHT22;8072;52.554;7.966;2022-10-18T10:51:06;17.80;99.90
15947;DHT22;8072;52.554;7.966;2022-10-18T10:53:46;17.90;99.90
15947;DHT22;8072;52.554;7.966;2022-10-18T10:59:24;18.10;99.90
15947;DHT22;8072;52.554;7.966;2022-10-18T11:04:51;18.30;99.90
15947;DHT22;8072;52.554;7.966;2022-10-18T11:07:36;18.50;99.90
15947;DHT22;8072;52.554;7.966;2022-10-18T11:12:44;18.70;99.90
15947;DHT22;8072;52.554;7.966;2022-10-18T11:15:21;18.70;99.90
15947;DHT22;8072;52.554;7.966;2022-10-18T11:23:14;19.10;99.90
15947;DHT22;8072;52.554;7.966;2022-10-18T11:31:26;19.30;99.90
15947;DHT22;8072;52.554;7.966;2022-10-18T11:36:59;19.50;99.90
15947;DHT22;8072;52.554;7.966;2022-10-18T11:50:10;20.10;99.90
15947;DHT22;8072;52.554;7.966;2022-10-18T12:00:57;20.70;99.90
15947;DHT22;8072;52.554;7.966;2022-10-18T12:06:22;20.80;99.90
15947;DHT22;8072;52.554;7.966;2022-10-18T12:08:56;20.90;99.90
15947;DHT22;8072;52.554;7.966;2022-10-18T12:11:40;21.00;99.90
15947;DHT22;8072;52.554;7.966;2022-10-18T12:14:30;21.10;99.90
15947;DHT22;8072;52.554;7.966;2022-10-18T12:17:02;21.00;99.90
15947;DHT22;8072;52.554;7.966;2022-10-18T12:19:30;20.90;99.90
15947;DHT22;8072;52.554;7.966;2022-10-18T12:22:09;21.00;99.90
15947;DHT22;8072;52.554;7.966;2022-10-18T12:24:38;21.00;99.90
15947;DHT22;8072;52.554;7.966;2022-10-18T12:27:04;20.80;99.90
15947;DHT22;8072;52.554;7.966;2022-10-18T12:29:52;20.80;99.90
15947;DHT22;8072;52.554;7.966;2022-10-18T12:32:28;20.90;99.90
15947;DHT22;8072;52.554;7.966;2022-10-18T12:35:11;20.80;99.90
15947;DHT22;8072;52.554;7.966;2022-10-18T12:37:49;20.70;99.90
15947;DHT22;8072;52.554;7.966;2022-10-18T12:42:57;20.60;99.90
15947;DHT22;8072;52.554;7.966;2022-10-18T12:47:49;20.50;99.90
15947;DHT22;8072;52.554;7.966;2022-10-18T12:50:27;20.40;99.90
15947;DHT22;8072;52.554;7.966;2022-10-18T12:55:43;20.30;99.90
15947;DHT22;8072;52.554;7.966;2022-10-18T13:16:26;20.30;99.90
15947;DHT22;8072;52.554;7.966;2022-10-18T13:22:18;20.20;99.90
15947;DHT22;8072;52.554;7.966;2022-10-18T13:30:48;20.30;99.90
15947;DHT22;8072;52.554;7.966;2022-10-18T13:33:36;20.10;99.90
15947;DHT22;8072;52.554;7.966;2022-10-18T13:41:28;19.60;99.90
15947;DHT22;8072;52.554;7.966;2022-10-18T13:57:52;19.50;99.90
15947;DHT22;8072;52.554;7.966;2022-10-18T14:06:19;19.20;99.90
15947;DHT22;8072;52.554;7.966;2022-10-18T14:08:51;19.10;99.90
15947;DHT22;8072;52.554;7.966;2022-10-18T14:17:37;18.70;99.90
15947;DHT22;8072;52.554;7.966;2022-10-18T14:28:25;18.30;99.90
15947;DHT22;8072;52.554;7.966;2022-10-18T14:30:55;18.30;99.90
15947;DHT22;8072;52.554;7.966;2022-10-18T14:33:44;18.10;99.90
15947;DHT22;8072;52.554;7.966;2022-10-18T14:38:56;17.90;99.90
15947;DHT22;8072;52.554;7.966;2022-10-18T14:41:26;17.90;99.90
15947;DHT22;8072;52.554;7.966;2022-10-18T14:43:53;18.00;99.90
15947;DHT22;8072;52.554;7.966;2022-10-18T14:47:02;18.10;99.90
15947;DHT22;8072;52.554;7.966;2022-10-18T14:49:26;18.00;99.90
15947;DHT22;8072;52.554;7.966;2022-10-18T14:51:55;18.00;99.90
15947;DHT22;8072;52.554;7.966;2022-10-18T14:56:54;17.80;99.90
15947;DHT22;8072;52.554;7.966;2022-10-18T14:59:26;17.70;99.90
15947;DHT22;8072;52.554;7.966;2022-10-18T15:01:56;17.70;99.90
15947;DHT22;8072;52.554;7.966;2022-10-18T15:04:26;17.60;99.90
15947;DHT22;8072;52.554;7.966;2022-10-18T15:07:06;17.70;99.90
15947;DHT22;8072;52.554;7.966;2022-10-18T15:09:34;17.60;99.90
15947;DHT22;8072;52.554;7.966;2022-10-18T15:12:05;17.60;99.90
15947;DHT22;8072;52.554;7.966;2022-10-18T15:14:31;17.50;99.90
15947;DHT22;8072;52.554;7.966;2022-10-18T15:17:06;17.40;99.90
15947;DHT22;8072;52.554;7.966;2022-10-18T15:19:36;17.30;99.90
15947;DHT22;8072;52.554;7.966;2022-10-18T15:22:08;17.30;99.90
15947;DHT22;8072;52.554;7.966;2022-10-18T15:24:40;17.30;99.90
15947;DHT22;8072;52.554;7.966;2022-10-18T15:27:28;17.10;99.90
15947;DHT22;8072;52.554;7.966;2022-10-18T15:29:55;17.00;99.90
15947;DHT22;8072;52.554;7.966;2022-10-18T15:32:26;16.90;99.90
15947;DHT22;8072;52.554;7.966;2022-10-18T15:34:53;16.80;99.90
15947;DHT22;8072;52.554;7.966;2022-10-18T15:37:42;16.70;99.90
15947;DHT22;8072;52.554;7.966;2022-10-18T15:42:50;16.70;99.90
15947;DHT22;8072;52.554;7.966;2022-10-18T15:50:44;16.50;99.90
15947;DHT22;8072;52.554;7.966;2022-10-18T15:58:17;16.50;99.90
15947;DHT22;8072;52.554;7.966;2022-10-18T16:00:44;16.50;99.90
15947;DHT22;8072;52.554;7.966;2022-10-18T16:03:10;16.40;99.90
15947;DHT22;8072;52.554;7.966;2022-10-18T16:05:37;16.40;99.90
15947;DHT22;8072;52.554;7.966;2022-10-18T16:08:03;16.30;99.90
15947;DHT22;8072;52.554;7.966;2022-10-18T16:10:29;16.30;99.90
15947;DHT22;8072;52.554;7.966;2022-10-18T16:12:55;16.20;99.90
15947;DHT22;8072;52.554;7.966;2022-10-18T16:15:21;16.10;99.90
15947;DHT22;8072;52.554;7.966;2022-10-18T16:17:47;16.10;99.90
15947;DHT22;8072;52.554;7.966;2022-10-18T16:20:20;16.10;99.90
15947;DHT22;8072;52.554;7.966;2022-10-18T16:22:46;16.10;99.90
15947;DHT22;8072;52.554;7.966;2022-10-18T16:25:12;16.10;99.90
15947;DHT22;8072;52.554;7.966;2022-10-18T16:27:38;16.10;99.90
15947;DHT22;8072;52.554;7.966;2022-10-18T16:30:13;16.10;99.90
15947;DHT22;8072;52.554;7.966;2022-10-18T16:32:39;16.10;99.90
15947;DHT22;8072;52.554;7.966;2022-10-18T16:35:06;16.10;99.90
15947;DHT22;8072;52.554;7.966;2022-10-18T16:37:32;16.00;99.90
15947;DHT22;8072;52.554;7.966;2022-10-18T16:39:57;16.00;99.90
15947;DHT22;8072;52.554;7.966;2022-10-18T16:42:23;15.90;99.90
15947;DHT22;8072;52.554;7.966;2022-10-18T16:44:49;15.90;99.90
15947;DHT22;8072;52.554;7.966;2022-10-18T16:47:14;15.80;99.90
15947;DHT22;8072;52.554;7.966;2022-10-18T16:49:40;15.80;99.90
15947;DHT22;8072;52.554;7.966;2022-10-18T16:52:06;15.70;99.90
15947;DHT22;8072;52.554;7.966;2022-10-18T16:54:32;15.70;99.90
15947;DHT22;8072;52.554;7.966;2022-10-18T16:56:57;15.60;99.90
15947;DHT22;8072;52.554;7.966;2022-10-18T16:59:26;15.50;99.90
15947;DHT22;8072;52.554;7.966;2022-10-18T17:01:53;15.40;99.90
15947;DHT22;8072;52.554;7.966;2022-10-18T17:04:18;15.30;99.90
15947;DHT22;8072;52.554;7.966;2022-10-18T17:06:44;15.30;99.90
15947;DHT22;8072;52.554;7.966;2022-10-18T17:09:13;15.20;99.90
15947;DHT22;8072;52.554;7.966;2022-10-18T17:11:40;15.10;99.90
15947;DHT22;8072;52.554;7.966;2022-10-18T17:14:06;15.10;99.90
15947;DHT22;8072;52.554;7.966;2022-10-18T17:16:34;15.10;99.90
15947;DHT22;8072;52.554;7.966;2022-10-18T17:19:04;15.10;99.90
15947;DHT22;8072;52.554;7.966;2022-10-18T17:21:30;15.00;99.90
15947;DHT22;8072;52.554;7.966;2022-10-18T17:23:58;15.00;99.90
15947;DHT22;8072;52.554;7.966;2022-10-18T17:26:26;15.00;99.90
15947;DHT22;8072;52.554;7.966;2022-10-18T17:28:54;15.00;99.90
15947;DHT22;8072;52.554;7.966;2022-10-18T17:31:20;14.90;99.90
15947;DHT22;8072;52.554;7.966;2022-10-18T17:33:46;14.90;99.90
15947;DHT22;8072;52.554;7.966;2022-10-18T17:36:12;14.80;99.90
15947;DHT22;8072;52.554;7.966;2022-10-18T17:38:38;14.80;99.90
15947;DHT22;8072;52.554;7.966;2022-10-18T17:41:08;14.70;99.90
15947;DHT22;8072;52.554;7.966;2022-10-18T17:43:36;14.70;99.90
15947;DHT22;8072;52.554;7.966;2022-10-18T17:46:02;14.60;99.90
15947;DHT22;8072;52.554;7.966;2022-10-18T17:48:28;14.60;99.90
15947;DHT22;8072;52.554;7.966;2022-10-18T17:50:54;14.50;99.90
15947;DHT22;8072;52.554;7.966;2022-10-18T17:53:20;14.50;99.90
15947;DHT22;8072;52.554;7.966;2022-10-18T17:55:49;14.40;99.90
15947;DHT22;8072;52.554;7.966;2022-10-18T17:58:21;14.40;99.90
15947;DHT22;8072;52.554;7.966;2022-10-18T18:00:46;14.30;99.90
15947;DHT22;8072;52.554;7.966;2022-10-18T18:03:12;14.30;99.90
15947;DHT22;8072;52.554;7.966;2022-10-18T18:05:38;14.30;99.90
15947;DHT22;8072;52.554;7.966;2022-10-18T18:08:04;14.30;99.90
15947;DHT22;8072;52.554;7.966;2022-10-18T18:10:31;14.20;99.90
15947;DHT22;8072;52.554;7.966;2022-10-18T18:12:57;14.20;99.90
15947;DHT22;8072;52.554;7.966;2022-10-18T18:15:23;14.10;99.90
15947;DHT22;8072;52.554;7.966;2022-10-18T18:17:49;14.10;99.90
15947;DHT22;8072;52.554;7.966;2022-10-18T18:20:14;14.00;99.90
15947;DHT22;8072;52.554;7.966;2022-10-18T18:22:40;13.90;99.90
15947;DHT22;8072;52.554;7.966;2022-10-18T18:25:06;13.80;99.90
15947;DHT22;8072;52.554;7.966;2022-10-18T18:27:34;13.70;99.90
15947;DHT22;8072;52.554;7.966;2022-10-18T18:30:00;13.70;99.90
15947;DHT22;8072;52.554;7.966;2022-10-18T18:32:26;13.60;99.90
15947;DHT22;8072;52.554;7.966;2022-10-18T18:34:52;13.60;99.90
15947;DHT22;8072;52.554;7.966;2022-10-18T18:37:18;13.60;99.90
15947;DHT22;8072;52.554;7.966;2022-10-18T18:39:44;13.50;99.90
15947;DHT22;8072;52.554;7.966;2022-10-18T18:42:09;13.50;99.90
15947;DHT22;8072;52.554;7.966;2022-10-18T18:44:35;13.40;99.90
15947;DHT22;8072;52.554;7.966;2022-10-18T18:47:01;13.40;99.90
15947;DHT22;8072;52.554;7.966;2022-10-18T18:49:28;13.40;99.90
15947;DHT22;8072;52.554;7.966;2022-10-18T18:51:55;13.30;99.90
15947;DHT22;8072;52.554;7.966;2022-10-18T18:54:21;13.30;99.90
15947;DHT22;8072;52.554;7.966;2022-10-18T18:56:48;13.30;99.90
15947;DHT22;8072;52.554;7.966;2022-10-18T18:59:14;13.20;99.90
15947;DHT22;8072;52.554;7.966;2022-10-18T19:01:40;13.20;99.90
15947;DHT22;8072;52.554;7.966;2022-10-18T19:04:07;13.20;99.90
15947;DHT22;8072;52.554;7.966;2022-10-18T19:06:42;13.20;99.90
15947;DHT22;8072;52.554;7.966;2022-10-18T19:09:11;13.10;99.90
15947;DHT22;8072;52.554;7.966;2022-10-18T19:11:43;13.10;99.90
15947;DHT22;8072;52.554;7.966;2022-10-18T19:14:10;13.00;99.90
15947;DHT22;8072;52.554;7.966;2022-10-18T19:16:37;13.00;99.90
15947;DHT22;8072;52.554;7.966;2022-10-18T19:19:10;13.00;99.90
15947;DHT22;8072;52.554;7.966;2022-10-18T19:21:39;12.90;99.90
15947;DHT22;8072;52.554;7.966;2022-10-18T19:24:06;12.80;99.90
15947;DHT22;8072;52.554;7.966;2022-10-18T19:29:07;12.80;99.90
15947;DHT22;8072;52.554;7.966;2022-10-18T19:31:33;12.80;99.90